createdAt,value
2023-05-23T00:00:09.187Z,17.79
2023-05-23T00:02:35.764Z,17.61
2023-05-23T00:05:03.683Z,17.54
2023-05-23T00:07:32.458Z,17.52
2023-05-23T00:09:59.003Z,17.46
2023-05-23T00:12:25.672Z,17.32
2023-05-23T00:14:53.645Z,17.26
2023-05-23T00:17:21.926Z,17.19
2023-05-23T00:19:49.011Z,17.18
2023-05-23T00:22:16.757Z,17.50
2023-05-23T00:24:44.012Z,17.70
2023-05-23T00:27:10.629Z,17.79
2023-05-23T00:29:37.168Z,17.65
2023-05-23T00:32:03.830Z,17.56
2023-05-23T00:34:30.365Z,17.31
2023-05-23T00:36:58.206Z,17.23
2023-05-23T00:39:24.766Z,17.20
2023-05-23T00:41:52.917Z,17.16
2023-05-23T00:44:21.166Z,17.13
2023-05-23T00:46:55.481Z,17.07
2023-05-23T00:49:22.378Z,16.97
2023-05-23T00:51:50.057Z,17.00
2023-05-23T00:54:28.719Z,16.94
2023-05-23T00:56:56.074Z,16.86
2023-05-23T00:59:26.795Z,16.87
2023-05-23T01:01:55.886Z,16.89
2023-05-23T01:04:26.409Z,16.79
2023-05-23T01:06:54.864Z,16.72
2023-05-23T01:09:22.421Z,16.72
2023-05-23T01:12:12.411Z,16.87
2023-05-23T01:14:49.403Z,16.88
2023-05-23T01:17:21.704Z,17.05
2023-05-23T01:20:10.243Z,17.03
2023-05-23T01:23:02.759Z,16.99
2023-05-23T01:25:59.342Z,16.97
2023-05-23T01:28:43.528Z,17.00
2023-05-23T01:31:11.106Z,16.94
2023-05-23T01:33:40.168Z,16.95
2023-05-23T01:36:08.028Z,16.82
2023-05-23T01:38:34.613Z,16.79
2023-05-23T01:41:01.176Z,16.78
2023-05-23T01:43:27.797Z,16.65
2023-05-23T01:45:56.731Z,16.76
2023-05-23T01:48:26.073Z,16.64
2023-05-23T01:50:53.369Z,16.61
2023-05-23T01:53:22.493Z,16.69
2023-05-23T01:55:49.401Z,16.68
2023-05-23T01:58:15.940Z,16.56
2023-05-23T02:00:42.494Z,16.61
2023-05-23T02:03:09.318Z,16.57
2023-05-23T02:05:36.151Z,16.59
2023-05-23T02:08:02.652Z,16.53
2023-05-23T02:10:29.190Z,16.56
2023-05-23T02:12:55.670Z,16.58
2023-05-23T02:15:22.202Z,16.55
2023-05-23T02:17:48.719Z,16.61
2023-05-23T02:20:15.384Z,16.60
2023-05-23T02:22:41.875Z,16.54
2023-05-23T02:25:08.743Z,16.58
2023-05-23T02:27:35.380Z,16.64
2023-05-23T02:30:01.995Z,16.54
2023-05-23T02:32:29.672Z,16.42
2023-05-23T02:34:57.447Z,16.43
2023-05-23T02:37:24.266Z,16.38
2023-05-23T02:39:50.760Z,16.48
2023-05-23T02:42:17.224Z,16.54
2023-05-23T02:44:43.778Z,16.61
2023-05-23T02:47:10.868Z,16.56
2023-05-23T02:49:37.383Z,16.65
2023-05-23T02:52:03.919Z,16.55
2023-05-23T02:54:31.126Z,16.66
2023-05-23T02:56:58.518Z,16.60
2023-05-23T02:59:26.727Z,16.57
2023-05-23T03:01:53.481Z,16.53
2023-05-23T03:04:19.986Z,16.55
2023-05-23T03:06:47.581Z,16.60
2023-05-23T03:09:17.014Z,16.52
2023-05-23T03:11:43.923Z,16.44
2023-05-23T03:14:10.628Z,16.43
2023-05-23T03:16:37.238Z,16.42
2023-05-23T03:19:04.761Z,16.47
2023-05-23T03:21:32.962Z,16.54
2023-05-23T03:23:59.503Z,16.42
2023-05-23T03:26:26.000Z,16.38
2023-05-23T03:28:52.568Z,16.42
2023-05-23T03:31:19.176Z,16.39
2023-05-23T03:33:45.829Z,16.36
2023-05-23T03:36:12.331Z,16.36
2023-05-23T03:38:38.852Z,16.33
2023-05-23T03:41:05.499Z,16.26
2023-05-23T03:43:32.053Z,16.33
2023-05-23T03:45:59.115Z,16.30
2023-05-23T03:48:25.711Z,16.26
2023-05-23T03:50:52.231Z,16.25
2023-05-23T03:53:18.801Z,16.17
2023-05-23T03:55:45.583Z,16.27
2023-05-23T03:58:12.092Z,16.16
2023-05-23T04:00:38.651Z,16.11
2023-05-23T04:03:05.296Z,16.31
2023-05-23T04:05:32.081Z,16.46
2023-05-23T04:08:01.339Z,16.49
2023-05-23T04:10:28.030Z,16.31
2023-05-23T04:12:54.570Z,16.38
2023-05-23T04:15:22.330Z,16.51
2023-05-23T04:17:48.940Z,16.51
2023-05-23T04:20:15.694Z,16.55
2023-05-23T04:22:42.194Z,16.55
2023-05-23T04:25:09.554Z,16.53
2023-05-23T04:27:37.296Z,16.56
2023-05-23T04:30:07.371Z,16.51
2023-05-23T04:32:34.111Z,16.64
2023-05-23T04:35:02.179Z,16.62
2023-05-23T04:37:28.918Z,16.65
2023-05-23T04:39:56.615Z,16.59
2023-05-23T04:42:24.729Z,16.69
2023-05-23T04:44:52.737Z,16.78
2023-05-23T04:47:19.324Z,16.81
2023-05-23T04:49:45.851Z,16.87
2023-05-23T04:52:13.428Z,17.08
2023-05-23T04:54:44.629Z,17.14
2023-05-23T04:57:12.392Z,17.13
2023-05-23T04:59:39.511Z,17.19
2023-05-23T05:02:06.511Z,17.30
2023-05-23T05:04:33.069Z,17.31
2023-05-23T05:06:59.612Z,17.41
2023-05-23T05:09:26.212Z,17.48
2023-05-23T05:11:52.769Z,17.49
2023-05-23T05:14:19.252Z,17.58
2023-05-23T05:16:47.915Z,17.63
2023-05-23T05:19:15.143Z,17.73
2023-05-23T05:21:41.752Z,17.81
2023-05-23T05:24:11.176Z,17.94
2023-05-23T05:26:37.750Z,18.06
2023-05-23T05:29:04.409Z,18.29
2023-05-23T05:31:31.092Z,18.51
2023-05-23T05:33:57.746Z,18.60
2023-05-23T05:36:24.356Z,18.89
2023-05-23T05:38:51.257Z,18.94
2023-05-23T05:41:17.839Z,19.15
2023-05-23T05:43:44.343Z,19.19
2023-05-23T05:46:11.525Z,19.09
2023-05-23T05:48:38.075Z,19.08
2023-05-23T05:51:04.847Z,19.03
2023-05-23T05:53:31.358Z,19.08
2023-05-23T05:55:57.928Z,18.98
2023-05-23T05:58:24.451Z,19.13
2023-05-23T06:00:50.997Z,19.38
2023-05-23T06:03:18.146Z,19.71
2023-05-23T06:05:44.811Z,19.74
2023-05-23T06:08:11.589Z,20.09
2023-05-23T06:10:39.862Z,20.56
2023-05-23T06:13:06.714Z,20.95
2023-05-23T06:15:33.304Z,20.80
2023-05-23T06:17:59.863Z,21.29
2023-05-23T06:20:26.627Z,21.45
2023-05-23T06:22:53.260Z,21.43
2023-05-23T06:25:19.963Z,21.37
2023-05-23T06:27:46.452Z,21.82
2023-05-23T06:30:13.798Z,21.96
2023-05-23T06:32:41.350Z,22.21
2023-05-23T06:35:08.360Z,22.21
2023-05-23T06:37:35.066Z,22.03
2023-05-23T06:40:01.806Z,21.73
2023-05-23T06:42:28.329Z,21.62
2023-05-23T06:44:54.908Z,21.72
2023-05-23T06:47:21.484Z,21.53
2023-05-23T06:49:48.033Z,21.59
2023-05-23T06:52:14.554Z,21.58
2023-05-23T06:54:41.309Z,21.49
2023-05-23T06:57:07.844Z,21.62
2023-05-23T06:59:34.343Z,21.82
2023-05-23T07:02:00.877Z,21.47
2023-05-23T07:04:27.415Z,21.28
2023-05-23T07:06:53.958Z,21.19
2023-05-23T07:09:20.607Z,21.41
2023-05-23T07:11:47.168Z,21.39
2023-05-23T07:14:13.792Z,21.16
2023-05-23T07:16:40.397Z,21.14
2023-05-23T07:19:07.127Z,21.24
2023-05-23T07:21:33.690Z,21.15
2023-05-23T07:24:00.564Z,21.04
2023-05-23T07:26:27.560Z,21.19
2023-05-23T07:28:54.169Z,21.23
2023-05-23T07:31:20.746Z,21.32
2023-05-23T07:33:47.283Z,21.26
2023-05-23T07:36:13.749Z,21.51
2023-05-23T07:38:40.298Z,21.75
2023-05-23T07:41:12.027Z,21.85
2023-05-23T07:43:39.444Z,21.93
2023-05-23T07:46:06.102Z,21.86
2023-05-23T07:48:33.228Z,22.12
2023-05-23T07:50:59.754Z,22.32
2023-05-23T07:53:26.496Z,22.65
2023-05-23T07:55:53.099Z,22.73
2023-05-23T07:58:19.648Z,23.97
2023-05-23T08:00:46.270Z,24.56
2023-05-23T08:03:13.425Z,24.64
2023-05-23T08:05:40.074Z,24.20
2023-05-23T08:08:06.630Z,23.83
2023-05-23T08:10:33.209Z,23.85
2023-05-23T08:13:00.956Z,23.78
2023-05-23T08:15:28.827Z,23.68
2023-05-23T08:17:57.383Z,24.34
2023-05-23T08:20:30.888Z,24.98
2023-05-23T08:23:01.424Z,25.05
2023-05-23T08:25:32.031Z,25.27
2023-05-23T08:27:59.419Z,25.80
2023-05-23T08:30:27.449Z,25.86
2023-05-23T08:32:55.683Z,25.46
2023-05-23T08:35:22.840Z,25.14
2023-05-23T08:37:50.908Z,24.90
2023-05-23T08:40:22.822Z,24.48
2023-05-23T08:42:50.875Z,23.93
2023-05-23T08:45:18.293Z,23.63
2023-05-23T08:47:46.059Z,23.41
2023-05-23T08:50:20.130Z,23.06
2023-05-23T08:52:55.993Z,22.86
2023-05-23T08:55:27.166Z,22.58
2023-05-23T08:57:59.323Z,22.21
2023-05-23T09:00:27.990Z,22.15
2023-05-23T09:02:54.776Z,22.01
2023-05-23T09:05:22.052Z,21.87
2023-05-23T09:07:49.256Z,21.79
2023-05-23T09:10:20.407Z,21.76
2023-05-23T09:12:47.442Z,21.75
2023-05-23T09:15:14.787Z,21.86
2023-05-23T09:17:41.714Z,22.10
2023-05-23T09:20:14.348Z,22.27
2023-05-23T09:22:41.386Z,22.40
2023-05-23T09:25:08.949Z,22.43
2023-05-23T09:27:36.125Z,22.69
2023-05-23T09:30:11.191Z,22.99
2023-05-23T09:32:38.178Z,23.13
2023-05-23T09:35:07.174Z,23.25
2023-05-23T09:37:39.258Z,23.42
2023-05-23T09:40:10.720Z,23.38
2023-05-23T09:42:44.250Z,23.49
2023-05-23T09:45:15.177Z,23.39
2023-05-23T09:47:52.215Z,23.39
2023-05-23T09:50:19.851Z,23.54
2023-05-23T09:52:47.178Z,23.79
2023-05-23T09:55:14.792Z,24.12
2023-05-23T09:57:42.802Z,24.52
2023-05-23T10:00:17.084Z,24.76
2023-05-23T10:03:01.771Z,24.91
2023-05-23T10:05:50.119Z,25.10
2023-05-23T10:08:29.980Z,25.97
2023-05-23T10:10:56.525Z,26.73
2023-05-23T10:13:26.789Z,27.69
2023-05-23T10:16:00.241Z,27.93
2023-05-23T10:18:29.992Z,28.13
2023-05-23T10:21:03.259Z,28.43
2023-05-23T10:23:29.879Z,27.87
2023-05-23T10:25:56.354Z,27.90
2023-05-23T10:28:23.038Z,27.96
2023-05-23T10:30:51.062Z,28.18
2023-05-23T10:33:18.922Z,28.00
2023-05-23T10:36:10.188Z,28.36
2023-05-23T10:38:44.107Z,28.95
2023-05-23T10:41:34.104Z,28.16
2023-05-23T10:44:27.061Z,28.70
2023-05-23T10:47:02.419Z,29.13
2023-05-23T10:49:52.428Z,29.63
2023-05-23T10:52:19.179Z,30.07
2023-05-23T10:54:54.057Z,29.70
2023-05-23T10:57:29.467Z,30.39
2023-05-23T10:59:56.251Z,30.79
2023-05-23T11:02:28.820Z,30.80
2023-05-23T11:05:24.797Z,31.37
2023-05-23T11:08:13.977Z,30.88
2023-05-23T11:10:59.466Z,29.24
2023-05-23T11:13:26.941Z,28.60
2023-05-23T11:15:53.601Z,28.23
2023-05-23T11:18:26.577Z,27.65
2023-05-23T11:20:54.621Z,27.46
2023-05-23T11:23:22.524Z,27.29
2023-05-23T11:25:52.077Z,27.13
2023-05-23T11:28:18.910Z,26.77
2023-05-23T11:30:48.875Z,26.42
2023-05-23T11:33:17.209Z,26.34
2023-05-23T11:35:47.851Z,26.17
2023-05-23T11:38:16.719Z,26.03
2023-05-23T11:40:46.241Z,25.61
2023-05-23T11:43:18.088Z,25.67
2023-05-23T11:45:46.870Z,27.32
2023-05-23T11:48:16.556Z,28.25
2023-05-23T11:50:48.510Z,28.58
2023-05-23T11:53:20.847Z,29.18
2023-05-23T11:55:55.017Z,29.72
2023-05-23T11:58:23.192Z,29.41
2023-05-23T12:00:49.975Z,29.50
2023-05-23T12:03:16.847Z,29.21
2023-05-23T12:05:45.451Z,29.81
2023-05-23T12:08:14.213Z,29.92
2023-05-23T12:11:00.367Z,29.86
2023-05-23T12:13:29.218Z,29.06
2023-05-23T12:15:56.694Z,29.80
2023-05-23T12:18:23.649Z,29.77
2023-05-23T12:20:51.536Z,30.36
2023-05-23T12:23:25.089Z,30.98
2023-05-23T12:25:55.673Z,31.28
2023-05-23T12:28:35.079Z,30.58
2023-05-23T12:31:18.967Z,30.77
2023-05-23T12:33:48.366Z,30.31
2023-05-23T12:36:22.986Z,30.52
2023-05-23T12:38:49.672Z,31.13
2023-05-23T12:41:19.809Z,30.63
2023-05-23T12:43:51.896Z,31.18
2023-05-23T12:46:19.375Z,31.20
2023-05-23T12:48:45.837Z,31.38
2023-05-23T12:51:12.381Z,31.63
2023-05-23T12:53:39.150Z,31.55
2023-05-23T12:56:06.027Z,29.99
2023-05-23T12:58:32.850Z,30.52
2023-05-23T13:00:59.447Z,30.75
2023-05-23T13:03:26.286Z,30.68
2023-05-23T13:05:53.881Z,30.77
2023-05-23T13:08:21.393Z,30.30
2023-05-23T13:10:48.266Z,30.18
2023-05-23T13:13:15.296Z,29.88
2023-05-23T13:15:42.480Z,29.87
2023-05-23T13:18:09.633Z,29.85
2023-05-23T13:20:36.167Z,30.36
2023-05-23T13:23:02.864Z,29.43
2023-05-23T13:25:29.781Z,29.95
2023-05-23T13:27:56.964Z,30.40
2023-05-23T13:30:24.783Z,30.62
2023-05-23T13:32:52.200Z,30.31
2023-05-23T13:35:18.950Z,30.28
2023-05-23T13:37:45.519Z,30.19
2023-05-23T13:40:20.266Z,30.30
2023-05-23T13:42:51.305Z,30.57
2023-05-23T13:45:18.640Z,30.79
2023-05-23T13:47:45.524Z,30.42
2023-05-23T13:50:12.181Z,30.61
2023-05-23T13:52:41.126Z,29.97
2023-05-23T13:55:10.008Z,29.35
2023-05-23T13:57:36.576Z,29.24
2023-05-23T14:00:03.733Z,28.99
2023-05-23T14:02:32.190Z,28.81
2023-05-23T14:04:58.972Z,28.46
2023-05-23T14:07:25.577Z,28.46
2023-05-23T14:09:52.192Z,28.43
2023-05-23T14:12:18.822Z,28.37
2023-05-23T14:14:45.343Z,28.20
2023-05-23T14:17:17.650Z,27.95
2023-05-23T14:19:44.529Z,28.20
2023-05-23T14:22:11.464Z,28.18
2023-05-23T14:24:38.087Z,28.05
2023-05-23T14:27:04.831Z,27.93
2023-05-23T14:29:31.724Z,27.85
2023-05-23T14:32:00.844Z,27.88
2023-05-23T14:34:27.586Z,27.74
2023-05-23T14:36:54.237Z,27.45
2023-05-23T14:39:20.723Z,27.58
2023-05-23T14:41:47.247Z,27.38
2023-05-23T14:44:13.806Z,26.88
2023-05-23T14:46:42.080Z,26.99
2023-05-23T14:49:08.650Z,27.03
2023-05-23T14:54:09.692Z,26.89
2023-05-23T14:56:37.735Z,26.79
2023-05-23T14:59:08.116Z,26.55
2023-05-23T15:01:35.660Z,25.87
2023-05-23T15:04:05.619Z,25.86
2023-05-23T15:06:32.399Z,25.96
2023-05-23T15:08:58.979Z,26.10
2023-05-23T15:11:27.397Z,25.97
2023-05-23T15:13:54.299Z,25.53
2023-05-23T15:16:20.959Z,25.57
2023-05-23T15:18:47.739Z,25.66
2023-05-23T15:21:14.629Z,25.11
2023-05-23T15:23:41.686Z,25.12
2023-05-23T15:26:08.365Z,24.62
2023-05-23T15:28:35.031Z,24.94
2023-05-23T15:31:01.859Z,25.10
2023-05-23T15:33:28.788Z,24.96
2023-05-23T15:35:55.898Z,24.96
2023-05-23T15:38:22.404Z,24.57
2023-05-23T15:40:49.126Z,24.78
2023-05-23T15:43:15.759Z,24.80
2023-05-23T15:45:42.446Z,24.92
2023-05-23T15:48:09.183Z,24.64
2023-05-23T15:50:35.843Z,24.46
2023-05-23T15:53:02.396Z,24.44
2023-05-23T15:55:29.017Z,24.50
2023-05-23T15:57:55.685Z,24.42
2023-05-23T16:00:22.233Z,24.32
2023-05-23T16:02:48.777Z,23.77
2023-05-23T16:05:16.418Z,23.80
2023-05-23T16:07:43.053Z,23.91
2023-05-23T16:10:09.970Z,23.82
2023-05-23T16:12:36.770Z,23.88
2023-05-23T16:15:03.546Z,24.13
2023-05-23T16:17:30.108Z,24.07
2023-05-23T16:19:56.638Z,24.07
2023-05-23T16:22:23.559Z,23.99
2023-05-23T16:24:50.048Z,23.82
2023-05-23T16:27:16.660Z,23.73
2023-05-23T16:29:43.402Z,23.67
2023-05-23T16:32:10.013Z,23.48
2023-05-23T16:34:36.725Z,23.13
2023-05-23T16:37:03.320Z,23.56
2023-05-23T16:39:29.892Z,23.74
2023-05-23T16:41:57.533Z,23.68
2023-05-23T16:44:26.165Z,23.57
2023-05-23T16:46:52.701Z,23.49
2023-05-23T16:49:19.363Z,23.55
2023-05-23T16:51:48.556Z,23.34
2023-05-23T16:54:16.083Z,23.17
2023-05-23T16:56:43.162Z,23.19
2023-05-23T16:59:09.652Z,23.14
2023-05-23T17:01:36.419Z,22.94
2023-05-23T17:04:04.676Z,22.95
2023-05-23T17:06:32.182Z,22.75
2023-05-23T17:08:58.724Z,22.70
2023-05-23T17:11:25.662Z,22.53
2023-05-23T17:13:52.298Z,22.33
2023-05-23T17:16:20.710Z,22.41
2023-05-23T17:18:47.558Z,22.41
2023-05-23T17:21:14.150Z,22.20
2023-05-23T17:23:40.793Z,22.24
2023-05-23T17:26:07.362Z,22.52
2023-05-23T17:28:33.982Z,22.21
2023-05-23T17:31:00.996Z,22.21
2023-05-23T17:33:27.781Z,22.18
2023-05-23T17:35:54.382Z,22.13
2023-05-23T17:38:21.165Z,22.00
2023-05-23T17:40:47.774Z,21.80
2023-05-23T17:43:14.366Z,21.52
2023-05-23T17:45:41.433Z,21.69
2023-05-23T17:48:07.992Z,21.60
2023-05-23T17:50:34.566Z,21.61
2023-05-23T17:53:02.787Z,21.56
2023-05-23T17:55:30.671Z,21.56
2023-05-23T17:57:57.211Z,21.54
2023-05-23T18:00:24.169Z,21.58
2023-05-23T18:02:51.905Z,21.53
2023-05-23T18:05:20.778Z,21.38
2023-05-23T18:07:47.804Z,21.19
2023-05-23T18:10:14.526Z,20.96
2023-05-23T18:12:41.361Z,20.96
2023-05-23T18:15:08.829Z,20.83
2023-05-23T18:17:35.767Z,20.90
2023-05-23T18:20:02.602Z,21.08
2023-05-23T18:22:31.725Z,21.05
2023-05-23T18:24:58.309Z,20.89
2023-05-23T18:27:25.158Z,20.82
2023-05-23T18:29:51.899Z,20.84
2023-05-23T18:32:18.543Z,20.82
2023-05-23T18:34:45.094Z,20.67
2023-05-23T18:37:11.657Z,20.69
2023-05-23T18:39:38.670Z,20.50
2023-05-23T18:42:05.763Z,20.52
2023-05-23T18:44:32.347Z,20.57
2023-05-23T18:46:58.981Z,20.48
2023-05-23T18:49:25.590Z,20.45
2023-05-23T18:51:54.368Z,20.33
2023-05-23T18:54:20.953Z,20.36
2023-05-23T18:56:47.496Z,20.27
2023-05-23T18:59:15.852Z,20.22
2023-05-23T19:01:42.705Z,20.23
2023-05-23T19:04:09.945Z,20.13
2023-05-23T19:06:36.800Z,20.13
2023-05-23T19:09:06.720Z,20.13
2023-05-23T19:11:33.283Z,20.09
2023-05-23T19:13:59.799Z,20.02
2023-05-23T19:16:26.322Z,19.97
2023-05-23T19:18:53.197Z,19.99
2023-05-23T19:21:19.810Z,19.83
2023-05-23T19:23:46.312Z,19.79
2023-05-23T19:26:13.665Z,19.63
2023-05-23T19:28:40.553Z,19.69
2023-05-23T19:31:07.940Z,19.67
2023-05-23T19:33:34.577Z,19.64
2023-05-23T19:36:01.187Z,19.60
2023-05-23T19:38:27.737Z,19.58
2023-05-23T19:40:54.397Z,19.63
2023-05-23T19:43:21.028Z,19.59
2023-05-23T19:45:48.849Z,19.71
2023-05-23T19:48:16.089Z,19.56
2023-05-23T19:50:43.442Z,19.39
2023-05-23T19:53:10.507Z,19.73
2023-05-23T19:55:37.094Z,19.76
2023-05-23T19:58:03.641Z,19.57
2023-05-23T20:00:30.191Z,19.52
2023-05-23T20:02:56.956Z,19.26
2023-05-23T20:05:23.782Z,18.99
2023-05-23T20:07:50.369Z,18.82
2023-05-23T20:10:16.959Z,18.73
2023-05-23T20:12:43.497Z,18.72
2023-05-23T20:15:10.904Z,18.73
2023-05-23T20:17:38.844Z,18.72
2023-05-23T20:20:06.375Z,18.93
2023-05-23T20:22:32.851Z,18.88
2023-05-23T20:24:59.389Z,18.90
2023-05-23T20:27:26.821Z,18.62
2023-05-23T20:29:53.371Z,18.53
2023-05-23T20:32:19.895Z,18.56
2023-05-23T20:34:46.756Z,18.59
2023-05-23T20:37:13.713Z,18.57
2023-05-23T20:39:43.836Z,18.68
2023-05-23T20:42:10.438Z,18.73
2023-05-23T20:44:38.167Z,18.78
2023-05-23T20:47:06.783Z,18.64
2023-05-23T20:49:34.802Z,18.64
2023-05-23T20:52:01.648Z,18.35
2023-05-23T20:54:28.233Z,18.16
2023-05-23T20:56:54.763Z,18.04
2023-05-23T20:59:21.645Z,18.08
2023-05-23T21:01:48.162Z,17.99
2023-05-23T21:04:16.170Z,18.09
2023-05-23T21:06:44.654Z,18.10
2023-05-23T21:09:13.605Z,17.92
2023-05-23T21:11:40.117Z,17.72
2023-05-23T21:14:06.669Z,17.77
2023-05-23T21:16:33.549Z,17.69
2023-05-23T21:19:00.369Z,17.66
2023-05-23T21:21:26.950Z,17.86
2023-05-23T21:23:53.486Z,17.66
2023-05-23T21:26:20.022Z,17.51
2023-05-23T21:28:46.483Z,17.35
2023-05-23T21:31:13.367Z,17.30
2023-05-23T21:33:39.905Z,17.27
2023-05-23T21:36:06.590Z,17.32
2023-05-23T21:38:37.349Z,17.27
2023-05-23T21:41:03.932Z,17.43
2023-05-23T21:43:30.616Z,17.28
2023-05-23T21:45:57.138Z,17.54
2023-05-23T21:48:23.717Z,17.41
2023-05-23T21:50:50.498Z,17.39
2023-05-23T21:53:17.081Z,17.44
2023-05-23T21:55:43.669Z,17.46
2023-05-23T21:58:10.279Z,17.40
2023-05-23T22:00:36.858Z,17.33
2023-05-23T22:03:03.413Z,17.44
2023-05-23T22:05:30.031Z,17.40
2023-05-23T22:07:56.453Z,17.42
2023-05-23T22:10:22.902Z,17.42
2023-05-23T22:12:49.347Z,17.33
2023-05-23T22:15:15.950Z,17.37
2023-05-23T22:17:43.717Z,17.45
2023-05-23T22:20:14.382Z,17.37
2023-05-23T22:22:40.889Z,17.34
2023-05-23T22:25:08.056Z,17.33
2023-05-23T22:27:34.539Z,17.32
2023-05-23T22:30:00.979Z,17.42
2023-05-23T22:32:27.422Z,17.40
2023-05-23T22:34:53.858Z,17.39
2023-05-23T22:37:20.680Z,17.32
2023-05-23T22:39:47.219Z,17.44
2023-05-23T22:42:13.784Z,17.43
2023-05-23T22:44:40.253Z,17.42
2023-05-23T22:47:06.831Z,17.49
2023-05-23T22:49:33.304Z,17.41
2023-05-23T22:51:59.875Z,17.29
2023-05-23T22:54:26.484Z,17.32
2023-05-23T22:56:53.160Z,17.26
2023-05-23T22:59:19.714Z,17.30
2023-05-23T23:01:46.367Z,17.16
2023-05-23T23:04:12.866Z,17.16
2023-05-23T23:06:39.355Z,17.19
2023-05-23T23:09:05.869Z,17.12
2023-05-23T23:11:32.338Z,17.07
2023-05-23T23:13:59.845Z,17.04
2023-05-23T23:16:26.346Z,17.00
2023-05-23T23:18:52.817Z,16.93
2023-05-23T23:21:19.310Z,17.01
2023-05-23T23:23:45.766Z,16.99
2023-05-23T23:26:12.343Z,16.85
2023-05-23T23:28:38.744Z,16.91
2023-05-23T23:31:05.295Z,16.48
2023-05-23T23:33:31.768Z,16.50
2023-05-23T23:35:58.360Z,16.54
2023-05-23T23:38:24.789Z,16.50
2023-05-23T23:40:51.365Z,16.49
2023-05-23T23:43:18.000Z,16.61
2023-05-23T23:45:45.209Z,16.52
2023-05-23T23:48:13.830Z,16.51
2023-05-23T23:50:40.745Z,16.57
2023-05-23T23:53:07.924Z,16.39
2023-05-23T23:55:34.524Z,16.38
2023-05-23T23:58:01.033Z,16.52
